Time,TemperatureF,DewpointF,PressureIn,WindDirection,WindDirectionDegrees,WindSpeedMPH,WindSpeedGustMPH,Humidity,HourlyPrecipIn,Conditions,Clouds,dailyrainin,SoftwareType,DateUTC
2013-01-20 00:00:00,78.0,-99.9,30.00,ENE,70,13.0,16.0,-999,-99.99,,,-99.99,,2013-01-20 04:00:00,
2013-01-20 00:05:00,79.0,-99.9,30.01,ENE,60,16.0,18.0,-999,-99.99,,,-99.99,,2013-01-20 04:05:00,
2013-01-20 00:16:00,79.0,-99.9,30.01,ENE,60,16.0,18.0,-999,-99.99,,,-99.99,,2013-01-20 04:16:00,
2013-01-20 00:28:00,79.0,-99.9,30.01,ENE,60,16.0,18.0,-999,-99.99,,,-99.99,,2013-01-20 04:28:00,
2013-01-20 00:39:00,78.0,-99.9,30.00,ENE,70,13.0,16.0,-999,-99.99,,,-99.99,,2013-01-20 04:39:00,
2013-01-20 00:45:00,78.0,-99.9,30.00,ENE,70,13.0,16.0,-999,-99.99,,,-99.99,,2013-01-20 04:45:00,
2013-01-20 02:02:00,78.0,-99.9,29.99,ENE,70,13.0,18.0,-999,-99.99,,,-99.99,,2013-01-20 06:02:00,
2013-01-20 02:12:00,78.0,-99.9,29.99,ENE,70,13.0,18.0,-999,-99.99,,,-99.99,,2013-01-20 06:12:00,
2013-01-20 02:22:00,78.0,-99.9,29.99,ENE,70,13.0,18.0,-999,-99.99,,,-99.99,,2013-01-20 06:22:00,
2013-01-20 02:34:00,78.0,-99.9,29.97,ENE,60,13.0,16.0,-999,-99.99,,,-99.99,,2013-01-20 06:34:00,
2013-01-20 02:43:00,78.0,-99.9,29.97,ENE,60,13.0,16.0,-999,-99.99,,,-99.99,,2013-01-20 06:43:00,
2013-01-20 02:53:00,78.0,-99.9,29.97,ENE,60,13.0,16.0,-999,-99.99,,,-99.99,,2013-01-20 06:53:00,
2013-01-20 03:02:00,78.0,-99.9,29.96,ENE,60,13.0,16.0,-999,-99.99,,,-99.99,,2013-01-20 07:02:00,
2013-01-20 03:12:00,78.0,-99.9,29.96,ENE,60,13.0,16.0,-999,-99.99,,,-99.99,,2013-01-20 07:12:00,
2013-01-20 03:22:00,78.0,-99.9,29.96,ENE,60,13.0,16.0,-999,-99.99,,,-99.99,,2013-01-20 07:22:00,
2013-01-20 03:32:00,78.0,-99.9,29.96,ENE,60,13.0,18.0,-999,-99.99,,,-99.99,,2013-01-20 07:32:00,
2013-01-20 03:43:00,78.0,-99.9,29.96,ENE,60,13.0,18.0,-999,-99.99,,,-99.99,,2013-01-20 07:43:00,
2013-01-20 03:52:00,78.0,-99.9,29.96,ENE,60,13.0,18.0,-999,-99.99,,,-99.99,,2013-01-20 07:52:00,
2013-01-20 04:02:00,78.0,-99.9,29.95,ENE,70,16.0,20.0,-999,-99.99,,,-99.99,,2013-01-20 08:02:00,
2013-01-20 04:12:00,78.0,-99.9,29.95,ENE,70,16.0,20.0,-999,-99.99,,,-99.99,,2013-01-20 08:12:00,
2013-01-20 04:22:00,78.0,-99.9,29.95,ENE,70,16.0,20.0,-999,-99.99,,,-99.99,,2013-01-20 08:22:00,
2013-01-20 04:32:00,78.0,-99.9,29.95,ENE,70,13.0,18.0,-999,-99.99,,,-99.99,,2013-01-20 08:32:00,
2013-01-20 04:42:00,78.0,-99.9,29.95,ENE,70,13.0,18.0,-999,-99.99,,,-99.99,,2013-01-20 08:42:00,
2013-01-20 04:53:00,78.0,-99.9,29.95,ENE,70,13.0,18.0,-999,-99.99,,,-99.99,,2013-01-20 08:53:00,
2013-01-20 05:02:00,78.0,-99.9,29.96,ENE,70,16.0,18.0,-999,-99.99,,,-99.99,,2013-01-20 09:02:00,
2013-01-20 05:12:00,78.0,-99.9,29.96,ENE,70,16.0,18.0,-999,-99.99,,,-99.99,,2013-01-20 09:12:00,
2013-01-20 05:22:00,78.0,-99.9,29.96,ENE,70,16.0,18.0,-999,-99.99,,,-99.99,,2013-01-20 09:22:00,
2013-01-20 05:33:00,78.0,-99.9,29.96,ENE,60,16.0,18.0,-999,-99.99,,,-99.99,,2013-01-20 09:33:00,
2013-01-20 05:43:00,78.0,-99.9,29.96,ENE,60,16.0,18.0,-999,-99.99,,,-99.99,,2013-01-20 09:43:00,
2013-01-20 05:53:00,78.0,-99.9,29.96,ENE,60,16.0,18.0,-999,-99.99,,,-99.99,,2013-01-20 09:53:00,
2013-01-20 06:03:00,78.0,-99.9,29.96,ENE,60,13.0,18.0,-999,-99.99,,,-99.99,,2013-01-20 10:03:00,
2013-01-20 06:12:00,78.0,-99.9,29.96,ENE,60,13.0,18.0,-999,-99.99,,,-99.99,,2013-01-20 10:12:00,
2013-01-20 06:23:00,78.0,-99.9,29.96,ENE,60,13.0,18.0,-999,-99.99,,,-99.99,,2013-01-20 10:23:00,
2013-01-20 06:33:00,78.0,-99.9,29.96,ENE,60,16.0,18.0,-999,-99.99,,,-99.99,,2013-01-20 10:33:00,
2013-01-20 06:43:00,78.0,-99.9,29.96,ENE,60,16.0,18.0,-999,-99.99,,,-99.99,,2013-01-20 10:43:00,
2013-01-20 06:53:00,78.0,-99.9,29.96,ENE,60,16.0,18.0,-999,-99.99,,,-99.99,,2013-01-20 10:53:00,
2013-01-20 07:03:00,78.0,-99.9,29.97,ENE,60,16.0,20.0,-999,-99.99,,,-99.99,,2013-01-20 11:03:00,
2013-01-20 07:12:00,78.0,-99.9,29.97,ENE,60,16.0,20.0,-999,-99.99,,,-99.99,,2013-01-20 11:12:00,
2013-01-20 07:22:00,78.0,-99.9,29.97,ENE,60,16.0,20.0,-999,-99.99,,,-99.99,,2013-01-20 11:22:00,
2013-01-20 07:30:00,78.0,-99.9,29.99,ENE,60,16.0,18.0,-999,-99.99,,,-99.99,,2013-01-20 11:30:00,
2013-01-20 07:33:00,78.0,-99.9,29.98,ENE,60,13.0,18.0,-999,-99.99,,,-99.99,,2013-01-20 11:33:00,
2013-01-20 07:43:00,78.0,-99.9,29.98,ENE,60,13.0,18.0,-999,-99.99,,,-99.99,,2013-01-20 11:43:00,
2013-01-20 07:54:00,78.0,-99.9,29.98,ENE,60,13.0,18.0,-999,-99.99,,,-99.99,,2013-01-20 11:54:00,
2013-01-20 08:03:00,78.0,-99.9,29.99,ENE,60,16.0,18.0,-999,-99.99,,,-99.99,,2013-01-20 12:03:00,
2013-01-20 08:13:00,78.0,-99.9,29.99,ENE,60,16.0,18.0,-999,-99.99,,,-99.99,,2013-01-20 12:13:00,
2013-01-20 08:23:00,78.0,-99.9,29.99,ENE,60,16.0,18.0,-999,-99.99,,,-99.99,,2013-01-20 12:23:00,
2013-01-20 09:03:00,79.0,-99.9,30.02,ENE,70,16.0,20.0,-999,-99.99,,,-99.99,,2013-01-20 13:03:00,
2013-01-20 09:12:00,79.0,-99.9,30.02,ENE,70,16.0,20.0,-999,-99.99,,,-99.99,,2013-01-20 13:12:00,
2013-01-20 09:23:00,79.0,-99.9,30.02,ENE,70,16.0,20.0,-999,-99.99,,,-99.99,,2013-01-20 13:23:00,
2013-01-20 09:33:00,79.0,-99.9,30.03,ENE,70,16.0,18.0,-999,-99.99,,,-99.99,,2013-01-20 13:33:00,
2013-01-20 09:43:00,79.0,-99.9,30.03,ENE,70,16.0,18.0,-999,-99.99,,,-99.99,,2013-01-20 13:43:00,
2013-01-20 09:53:00,79.0,-99.9,30.03,ENE,70,16.0,18.0,-999,-99.99,,,-99.99,,2013-01-20 13:53:00,
2013-01-20 10:03:00,79.0,-99.9,30.04,ENE,70,16.0,18.0,-999,-99.99,,,-99.99,,2013-01-20 14:03:00,
2013-01-20 10:12:00,79.0,-99.9,30.04,ENE,70,16.0,18.0,-999,-99.99,,,-99.99,,2013-01-20 14:12:00,
2013-01-20 10:23:00,79.0,-99.9,30.04,ENE,70,16.0,18.0,-999,-99.99,,,-99.99,,2013-01-20 14:23:00,
2013-01-20 10:33:00,79.0,-99.9,30.04,ENE,70,16.0,18.0,-999,-99.99,,,-99.99,,2013-01-20 14:33:00,
2013-01-20 10:43:00,79.0,-99.9,30.04,ENE,70,16.0,18.0,-999,-99.99,,,-99.99,,2013-01-20 14:43:00,
2013-01-20 10:53:00,79.0,-99.9,30.04,ENE,70,16.0,18.0,-999,-99.99,,,-99.99,,2013-01-20 14:53:00,
2013-01-20 11:04:00,79.0,-99.9,30.04,ENE,70,13.0,18.0,-999,-99.99,,,-99.99,,2013-01-20 15:04:00,
2013-01-20 11:13:00,79.0,-99.9,30.04,ENE,70,13.0,18.0,-999,-99.99,,,-99.99,,2013-01-20 15:13:00,
2013-01-20 11:23:00,79.0,-99.9,30.04,ENE,70,13.0,18.0,-999,-99.99,,,-99.99,,2013-01-20 15:23:00,
2013-01-20 11:33:00,79.0,-99.9,30.04,East,80,13.0,16.0,-999,-99.99,,,-99.99,,2013-01-20 15:33:00,
2013-01-20 11:43:00,79.0,-99.9,30.04,East,80,13.0,16.0,-999,-99.99,,,-99.99,,2013-01-20 15:43:00,
2013-01-20 11:53:00,79.0,-99.9,30.04,East,80,13.0,16.0,-999,-99.99,,,-99.99,,2013-01-20 15:53:00,
2013-01-20 12:03:00,79.0,-99.9,30.03,ENE,70,13.0,16.0,-999,-99.99,,,-99.99,,2013-01-20 16:03:00,
2013-01-20 12:12:00,79.0,-99.9,30.03,ENE,70,13.0,16.0,-999,-99.99,,,-99.99,,2013-01-20 16:12:00,
2013-01-20 12:23:00,79.0,-99.9,30.03,ENE,70,13.0,16.0,-999,-99.99,,,-99.99,,2013-01-20 16:23:00,
2013-01-20 12:33:00,78.0,-99.9,30.03,East,90,16.0,25.0,-999,-99.99,,,-99.99,,2013-01-20 16:33:00,
2013-01-20 12:43:00,78.0,-99.9,30.03,East,90,16.0,25.0,-999,-99.99,,,-99.99,,2013-01-20 16:43:00,
2013-01-20 12:53:00,78.0,-99.9,30.03,East,90,16.0,25.0,-999,-99.99,,,-99.99,,2013-01-20 16:53:00,
2013-01-20 13:03:00,78.0,-99.9,30.01,East,100,11.0,11.0,-999,-99.99,,,-99.99,,2013-01-20 17:03:00,
2013-01-20 13:13:00,78.0,-99.9,30.01,East,100,11.0,11.0,-999,-99.99,,,-99.99,,2013-01-20 17:13:00,
2013-01-20 13:23:00,78.0,-99.9,30.01,East,100,11.0,11.0,-999,-99.99,,,-99.99,,2013-01-20 17:23:00,
2013-01-20 13:33:00,78.0,-99.9,29.99,East,90,9.0,13.0,-999,-99.99,,,-99.99,,2013-01-20 17:33:00,
2013-01-20 13:43:00,78.0,-99.9,29.99,East,90,9.0,13.0,-999,-99.99,,,-99.99,,2013-01-20 17:43:00,
2013-01-20 13:53:00,78.0,-99.9,29.99,East,90,9.0,13.0,-999,-99.99,,,-99.99,,2013-01-20 17:53:00,
2013-01-20 14:03:00,79.0,-99.9,29.98,East,90,9.0,9.0,-999,-99.99,,,-99.99,,2013-01-20 18:03:00,
2013-01-20 14:13:00,79.0,-99.9,29.98,East,90,9.0,9.0,-999,-99.99,,,-99.99,,2013-01-20 18:13:00,
2013-01-20 14:24:00,79.0,-99.9,29.98,East,90,9.0,9.0,-999,-99.99,,,-99.99,,2013-01-20 18:24:00,
2013-01-20 14:33:00,76.0,-99.9,29.97,ENE,60,16.0,20.0,-999,-99.99,,,-99.99,,2013-01-20 18:33:00,
2013-01-20 14:43:00,76.0,-99.9,29.97,ENE,60,16.0,20.0,-999,-99.99,,,-99.99,,2013-01-20 18:43:00,
2013-01-20 14:53:00,76.0,-99.9,29.97,ENE,60,16.0,20.0,-999,-99.99,,,-99.99,,2013-01-20 18:53:00,
2013-01-20 15:03:00,76.0,-99.9,29.96,NNE,20,7.0,9.0,-999,-99.99,,,-99.99,,2013-01-20 19:03:00,
2013-01-20 15:12:00,76.0,-99.9,29.96,NNE,20,7.0,9.0,-999,-99.99,,,-99.99,,2013-01-20 19:12:00,
2013-01-20 15:23:00,76.0,-99.9,29.96,NNE,20,7.0,9.0,-999,-99.99,,,-99.99,,2013-01-20 19:23:00,
2013-01-20 15:33:00,79.0,-99.9,29.95,East,90,11.0,13.0,-999,-99.99,,,-99.99,,2013-01-20 19:33:00,
2013-01-20 15:43:00,79.0,-99.9,29.95,East,90,11.0,13.0,-999,-99.99,,,-99.99,,2013-01-20 19:43:00,
2013-01-20 15:53:00,79.0,-99.9,29.95,East,90,11.0,13.0,-999,-99.99,,,-99.99,,2013-01-20 19:53:00,
2013-01-20 16:03:00,79.0,-99.9,29.95,East,90,13.0,18.0,-999,-99.99,,,-99.99,,2013-01-20 20:03:00,
2013-01-20 16:12:00,79.0,-99.9,29.95,East,90,13.0,18.0,-999,-99.99,,,-99.99,,2013-01-20 20:12:00,
2013-01-20 16:23:00,79.0,-99.9,29.95,East,90,13.0,18.0,-999,-99.99,,,-99.99,,2013-01-20 20:23:00,
2013-01-20 16:33:00,79.0,-99.9,29.95,East,80,13.0,16.0,-999,-99.99,,,-99.99,,2013-01-20 20:33:00,
2013-01-20 16:43:00,79.0,-99.9,29.95,East,80,13.0,16.0,-999,-99.99,,,-99.99,,2013-01-20 20:43:00,
2013-01-20 16:54:00,79.0,-99.9,29.95,East,80,13.0,16.0,-999,-99.99,,,-99.99,,2013-01-20 20:54:00,
2013-01-20 17:04:00,79.0,-99.9,29.95,East,80,11.0,16.0,-999,-99.99,,,-99.99,,2013-01-20 21:04:00,
2013-01-20 17:13:00,79.0,-99.9,29.95,East,80,11.0,16.0,-999,-99.99,,,-99.99,,2013-01-20 21:13:00,
2013-01-20 17:23:00,79.0,-99.9,29.95,East,80,11.0,16.0,-999,-99.99,,,-99.99,,2013-01-20 21:23:00,
2013-01-20 17:34:00,79.0,-99.9,29.95,East,80,13.0,16.0,-999,-99.99,,,-99.99,,2013-01-20 21:34:00,
2013-01-20 17:43:00,79.0,-99.9,29.95,East,80,13.0,16.0,-999,-99.99,,,-99.99,,2013-01-20 21:43:00,
2013-01-20 17:54:00,79.0,-99.9,29.95,East,80,13.0,16.0,-999,-99.99,,,-99.99,,2013-01-20 21:54:00,
2013-01-20 18:03:00,79.0,-99.9,29.96,East,80,13.0,16.0,-999,-99.99,,,-99.99,,2013-01-20 22:03:00,
2013-01-20 18:13:00,79.0,-99.9,29.96,East,80,13.0,16.0,-999,-99.99,,,-99.99,,2013-01-20 22:13:00,
2013-01-20 18:23:00,79.0,-99.9,29.96,East,80,13.0,16.0,-999,-99.99,,,-99.99,,2013-01-20 22:23:00,
2013-01-20 18:34:00,79.0,-99.9,29.95,East,80,11.0,16.0,-999,-99.99,,,-99.99,,2013-01-20 22:34:00,
2013-01-20 18:43:00,79.0,-99.9,29.95,East,80,11.0,16.0,-999,-99.99,,,-99.99,,2013-01-20 22:43:00,
2013-01-20 18:53:00,79.0,-99.9,29.95,East,80,11.0,16.0,-999,-99.99,,,-99.99,,2013-01-20 22:53:00,
2013-01-20 19:03:00,79.0,-99.9,29.96,ENE,70,13.0,16.0,-999,-99.99,,,-99.99,,2013-01-20 23:03:00,
2013-01-20 19:13:00,79.0,-99.9,29.96,ENE,70,13.0,16.0,-999,-99.99,,,-99.99,,2013-01-20 23:13:00,
2013-01-20 19:23:00,79.0,-99.9,29.96,ENE,70,13.0,16.0,-999,-99.99,,,-99.99,,2013-01-20 23:23:00,
2013-01-20 19:33:00,79.0,-99.9,29.97,East,80,13.0,18.0,-999,-99.99,,,-99.99,,2013-01-20 23:33:00,
2013-01-20 19:43:00,79.0,-99.9,29.97,East,80,13.0,18.0,-999,-99.99,,,-99.99,,2013-01-20 23:43:00,
2013-01-20 19:53:00,79.0,-99.9,29.97,East,80,13.0,18.0,-999,-99.99,,,-99.99,,2013-01-20 23:53:00,
2013-01-20 20:03:00,79.0,-99.9,29.98,East,80,13.0,16.0,-999,-99.99,,,-99.99,,2013-01-21 00:03:00,
2013-01-20 20:13:00,79.0,-99.9,29.98,East,80,13.0,16.0,-999,-99.99,,,-99.99,,2013-01-21 00:13:00,
2013-01-20 20:23:00,79.0,-99.9,29.98,East,80,13.0,16.0,-999,-99.99,,,-99.99,,2013-01-21 00:23:00,
2013-01-20 20:30:00,79.0,-99.9,29.99,ENE,70,13.0,16.0,-999,-99.99,,,-99.99,,2013-01-21 00:30:00,
2013-01-20 20:33:00,79.0,-99.9,29.98,ENE,70,13.0,18.0,-999,-99.99,,,-99.99,,2013-01-21 00:33:00,
2013-01-20 20:43:00,79.0,-99.9,29.98,ENE,70,13.0,18.0,-999,-99.99,,,-99.99,,2013-01-21 00:43:00,
2013-01-20 20:54:00,79.0,-99.9,29.98,ENE,70,13.0,18.0,-999,-99.99,,,-99.99,,2013-01-21 00:54:00,
2013-01-20 21:03:00,79.0,-99.9,29.99,ENE,70,13.0,16.0,-999,-99.99,,,-99.99,,2013-01-21 01:03:00,
2013-01-20 21:13:00,79.0,-99.9,29.99,ENE,70,13.0,16.0,-999,-99.99,,,-99.99,,2013-01-21 01:13:00,
2013-01-20 21:23:00,79.0,-99.9,29.99,ENE,70,13.0,16.0,-999,-99.99,,,-99.99,,2013-01-21 01:23:00,
2013-01-20 22:03:00,79.0,-99.9,30.00,ENE,70,13.0,18.0,-999,-99.99,,,-99.99,,2013-01-21 02:03:00,
2013-01-20 22:13:00,79.0,-99.9,30.00,ENE,70,13.0,18.0,-999,-99.99,,,-99.99,,2013-01-21 02:13:00,
2013-01-20 22:23:00,79.0,-99.9,30.00,ENE,70,13.0,18.0,-999,-99.99,,,-99.99,,2013-01-21 02:23:00,
2013-01-20 22:34:00,79.0,-99.9,30.01,ENE,70,13.0,16.0,-999,-99.99,,,-99.99,,2013-01-21 02:34:00,
2013-01-20 22:43:00,79.0,-99.9,30.01,ENE,70,13.0,16.0,-999,-99.99,,,-99.99,,2013-01-21 02:43:00,
2013-01-20 22:53:00,79.0,-99.9,30.01,ENE,70,13.0,16.0,-999,-99.99,,,-99.99,,2013-01-21 02:53:00,
2013-01-20 23:03:00,79.0,-99.9,30.01,ENE,70,11.0,13.0,-999,-99.99,,,-99.99,,2013-01-21 03:03:00,
2013-01-20 23:13:00,79.0,-99.9,30.01,ENE,70,11.0,13.0,-999,-99.99,,,-99.99,,2013-01-21 03:13:00,
2013-01-20 23:23:00,79.0,-99.9,30.01,ENE,70,11.0,13.0,-999,-99.99,,,-99.99,,2013-01-21 03:23:00,
2013-01-20 23:33:00,79.0,-99.9,30.01,ENE,70,11.0,13.0,-999,-99.99,,,-99.99,,2013-01-21 03:33:00,
2013-01-20 23:44:00,79.0,-99.9,30.01,ENE,70,11.0,13.0,-999,-99.99,,,-99.99,,2013-01-21 03:44:00,
2013-01-20 23:54:00,79.0,-99.9,30.01,ENE,70,11.0,13.0,-999,-99.99,,,-99.99,,2013-01-21 03:54:00,